x

Isle Of Shoals, Nh (iosn3) Weather Station

3:00pm - Sun 19th Feb 2017 All times are EST. -5 hours from GMT.

  • Wind
    16mph
  • Air Temp 55°f
  • Sea Pressure 1004.2mb
  • Isle Of Shoals, Nh
  • Isle Of Shoals, Nh

More Historic Weather Station data

Upgrade to MSW Pro to gain access to the past 30 days of data for over 8000 Wavebouys and Weather Stations around the globe.

Join Pro

Comparision Forecast

View Surf forecast
   
Sun 02/19 3:00pm 16
mph
1004.2mb 55f
2:00pm 18
mph
1003.5mb 53f
1:00pm 20
mph
1003.3mb 52f
12:00pm 22
mph
1003.4mb 50f
11:00am 20
mph
1004.1mb 49f
10:00am 17
mph
1004.3mb 48f
9:00am 18
mph
1004mb 47f
8:00am 21
mph
1003.5mb 46f
7:00am 23
mph
1002.8mb 52f
6:00am 22
mph
1002.2mb 52f
5:00am 24 25 mph 1001.4mb 52f
4:00am 16
mph
1000.9mb 49f
3:00am 10
mph
1000.1mb 50f
2:00am 14
mph
999.4mb 51f
1:00am 18 20 mph 998.7mb 50f
12:00am 22 23 mph 997.8mb 48f
Sat 02/18 11:00pm 21
mph
997.8mb 47f
10:00pm 23 24 mph 997.7mb 48f
9:00pm 29
mph
997.5mb 46f
8:00pm 28 30 mph 997.9mb 46f
7:00pm 26 28 mph 998mb 46f
6:00pm 18 20 mph 999mb 45f
5:00pm 21 22 mph 999mb 47f
4:00pm 18 20 mph 999.6mb 47f
3:00pm 16 17 mph 1000.5mb 44f
2:00pm 18 20 mph 1001.8mb 43f
1:00pm 20 22 mph 1002.8mb 40f
12:00pm 16 18 mph 1003.9mb 40f
11:00am 22 23 mph 1005.7mb 37f
10:00am 9 11 mph 1006.9mb 34f
9:00am 15 16 mph 1009mb 32f
8:00am 9 10 mph 1008.5mb 31f
7:00am 14 15 mph 1008.2mb 32f
6:00am 14 16 mph 1008.4mb 32f
5:00am 17 20 mph 1008.6mb 32f
4:00am 23 25 mph 1008.2mb 32f
3:00am 21 22 mph 1008.4mb 31f
2:00am 20 23 mph 1008.4mb 32f
1:00am 20 22 mph 1008.1mb 31f
12:00am 18 22 mph 1007.8mb 32f
Fri 02/17 11:00pm 16 18 mph 1007.1mb 33f
10:00pm 21 22 mph 1006.7mb 33f
9:00pm 20 22 mph 1006.6mb 34f
8:00pm 25 29 mph 1005.7mb 35f
7:00pm 28 30 mph 1005.1mb 35f
6:00pm 28 30 mph 1004.4mb 37f
5:00pm 25 28 mph 1003.7mb 38f
4:00pm 29 31 mph 1002.7mb 39f
3:00pm 22 24 mph 1002.5mb 38f
2:00pm 24 26 mph 1002.3mb 36f
1:00pm 21 23 mph 1002.6mb 34f
12:00pm 26 30 mph 1002.4mb 32f
11:00am 28 31 mph 1002.6mb 30f
10:00am 32 36 mph 1001.9mb 28f
9:00am 32 36 mph 1002.3mb 26f
8:00am 30 33 mph 1002mb 25f
7:00am 28 31 mph 1001.6mb 25f
6:00am 26 30 mph 1001.2mb 26f
5:00am 22 25 mph 1001mb 26f
4:00am 22 28 mph 1000.5mb 26f
3:00am 25 29 mph 1000.3mb 26f
2:00am 29 31 mph 999.9mb 26f
1:00am 28 32 mph 999.7mb 27f
12:00am 26 29 mph 999.9mb 27f
Thu 02/16 11:00pm 28 31 mph 999.5mb 28f
10:00pm 25 28 mph 999.4mb 28f
9:00pm 26 30 mph 999.1mb 29f
8:00pm 26 31 mph 998.5mb 29f
7:00pm 31 34 mph 997.4mb 30f
6:00pm 24 29 mph 996.8mb 31f
5:00pm 26 30 mph 995.5mb 32f
4:00pm 29 32 mph 994.3mb 33f
3:00pm 26 29 mph 994mb 32f
2:00pm 25 28 mph 993.8mb 31f
1:00pm 22 23 mph 994.1mb 31f
12:00pm 21 24 mph 994.3mb 30f
11:00am 17 20 mph 994.7mb 29f
10:00am 16 20 mph 994.3mb 29f
9:00am 7 8 mph 994.3mb 28f
8:00am 15 16 mph 994mb 28f
7:00am 21 24 mph 993.3mb 28f
6:00am 21 24 mph 992.4mb 28f
5:00am 20 22 mph 991.5mb 28f
4:00am 23 25 mph 990.8mb 29f
3:00am 23 25 mph 989.9mb 30f
2:00am 29 31 mph 989.3mb 31f
1:00am 24 28 mph 988.7mb 33f
12:00am 17 20 mph 988.7mb 33f
Wed 02/15 11:00pm 18 20 mph 988.7mb 33f
10:00pm 14 15 mph 989.3mb 32f